Nogliki, Russia
Current Conditions -  °F | °C
As of 4:00 PM on Tuesday 21 Oct 2014 (Local Time) from UHSS Reporting Station
Clear Clear  
Wind Chill: 34°   Ceiling: Unl
Heat Index: 41°   Visibility: 6mi
Dew Point: 16°   Wind: 11mph
Humidity: 36%   Direction: 310°NW
Pressure: 30"   Gusts: NA
Location:  51.83°N, 143.11°E
Report Text: UHSS 210500Z 31005MPS 270V360 9999 NSC 05/M09 Q1016 NOSIG RMKQFE761/1015 01CLRD70
Loading
Personal Weather Stations






























Interactive Weather Map
Tropical Storm Tracking
New forecast layout! Learn more

10-Day Weather Forecast

Advertisements
Track Severe Weather on mobile